createdAt,value
2018-03-07T00:00:56.416Z,22.67
2018-03-07T00:03:24.036Z,18.50
2018-03-07T00:05:51.728Z,20.70
2018-03-07T00:08:19.342Z,19.43
2018-03-07T00:10:47.007Z,17.57
2018-03-07T00:13:14.625Z,16.87
2018-03-07T00:15:42.273Z,17.53
2018-03-07T00:18:09.893Z,15.60
2018-03-07T00:20:37.600Z,16.93
2018-03-07T00:23:05.225Z,16.43
2018-03-07T00:25:32.829Z,15.43
2018-03-07T00:28:00.508Z,14.73
2018-03-07T00:30:28.112Z,15.20
2018-03-07T00:32:55.769Z,13.67
2018-03-07T00:35:23.388Z,14.70
2018-03-07T00:37:51.040Z,16.40
2018-03-07T00:40:18.641Z,15.30
2018-03-07T00:42:46.293Z,13.80
2018-03-07T00:45:13.903Z,13.83
2018-03-07T00:47:41.561Z,14.70
2018-03-07T00:50:09.175Z,15.40
2018-03-07T00:52:36.834Z,14.43
2018-03-07T00:55:04.473Z,13.43
2018-03-07T00:57:32.131Z,13.90
2018-03-07T00:59:59.752Z,14.47
2018-03-07T01:02:27.416Z,14.50
2018-03-07T01:04:55.055Z,15.17
2018-03-07T01:07:22.674Z,13.00
2018-03-07T01:09:50.348Z,14.57
2018-03-07T01:12:17.956Z,13.43
2018-03-07T01:14:45.748Z,15.87
2018-03-07T01:17:13.353Z,15.93
2018-03-07T01:19:41.001Z,15.33
2018-03-07T01:22:08.611Z,14.83
2018-03-07T01:24:36.276Z,15.23
2018-03-07T01:27:03.892Z,16.63
2018-03-07T01:29:31.588Z,16.73
2018-03-07T01:31:59.205Z,16.37
2018-03-07T01:34:26.892Z,15.37
2018-03-07T01:36:54.513Z,15.73
2018-03-07T01:39:22.164Z,15.33
2018-03-07T01:41:49.807Z,16.40
2018-03-07T01:44:17.450Z,15.70
2018-03-07T01:46:45.060Z,15.67
2018-03-07T01:49:12.731Z,15.30
2018-03-07T01:51:52.209Z,16.43
2018-03-07T01:54:19.816Z,18.30
2018-03-07T01:56:47.466Z,18.77
2018-03-07T01:59:15.079Z,16.17
2018-03-07T02:01:42.741Z,16.20
2018-03-07T02:04:10.353Z,16.20
2018-03-07T02:06:38.006Z,17.03
2018-03-07T02:09:05.628Z,15.53
2018-03-07T02:11:33.292Z,17.53
2018-03-07T02:14:00.935Z,17.10
2018-03-07T02:16:28.590Z,16.83
2018-03-07T02:18:56.218Z,17.67
2018-03-07T02:21:23.896Z,16.80
2018-03-07T02:23:51.512Z,17.10
2018-03-07T02:26:19.177Z,17.83
2018-03-07T02:28:46.809Z,17.17
2018-03-07T02:31:14.437Z,16.70
2018-03-07T02:33:42.089Z,15.80
2018-03-07T02:36:21.435Z,15.60
2018-03-07T02:38:49.089Z,15.90
2018-03-07T02:41:16.700Z,16.40
2018-03-07T02:43:44.365Z,15.70
2018-03-07T02:46:12.009Z,15.93
2018-03-07T02:48:39.661Z,18.30
2018-03-07T02:51:07.286Z,18.00
2018-03-07T02:53:34.936Z,16.50
2018-03-07T02:56:02.556Z,16.20
2018-03-07T02:58:30.201Z,17.60
2018-03-07T03:00:57.855Z,17.00
2018-03-07T03:03:25.525Z,17.80
2018-03-07T03:05:53.131Z,17.37
2018-03-07T03:08:20.790Z,17.20
2018-03-07T03:13:21.320Z,17.20
2018-03-07T03:15:48.928Z,16.07
2018-03-07T03:18:16.578Z,18.43
2018-03-07T03:20:44.201Z,18.70
2018-03-07T03:23:11.860Z,15.87
2018-03-07T03:25:39.463Z,18.23
2018-03-07T03:28:07.145Z,17.53
2018-03-07T03:30:34.817Z,17.90
2018-03-07T03:33:02.477Z,17.97
2018-03-07T03:35:30.132Z,18.40
2018-03-07T03:37:57.753Z,19.00
2018-03-07T03:40:25.431Z,19.53
2018-03-07T03:42:53.070Z,20.77
2018-03-07T03:45:20.733Z,17.57
2018-03-07T03:47:48.338Z,17.43
2018-03-07T03:50:15.984Z,19.00
2018-03-07T03:52:43.607Z,22.53
2018-03-07T03:55:11.255Z,21.53
2018-03-07T03:57:38.879Z,17.03
2018-03-07T04:00:06.541Z,17.50
2018-03-07T04:02:34.184Z,20.30
2018-03-07T04:05:01.834Z,18.60
2018-03-07T04:07:29.451Z,18.30
2018-03-07T04:09:57.129Z,19.67
2018-03-07T04:12:24.740Z,19.70
2018-03-07T04:14:52.413Z,19.30
2018-03-07T04:17:20.027Z,18.63
2018-03-07T04:19:47.733Z,18.87
2018-03-07T04:22:15.385Z,20.37
2018-03-07T04:24:43.008Z,18.00
2018-03-07T04:27:10.658Z,19.37
2018-03-07T04:29:38.290Z,23.50
2018-03-07T04:32:05.947Z,21.53
2018-03-07T04:34:33.582Z,22.57
2018-03-07T04:37:01.252Z,19.60
2018-03-07T04:39:28.856Z,20.97
2018-03-07T04:41:56.520Z,20.60
2018-03-07T04:44:24.142Z,19.77
2018-03-07T04:46:52.135Z,20.23
2018-03-07T04:49:19.795Z,20.77
2018-03-07T04:51:47.409Z,22.37
2018-03-07T04:54:15.086Z,20.50
2018-03-07T04:56:42.697Z,23.60
2018-03-07T04:59:10.373Z,23.93
2018-03-07T05:01:37.998Z,25.40
2018-03-07T05:04:05.637Z,24.97
2018-03-07T05:06:33.259Z,29.00
2018-03-07T05:09:00.958Z,26.53
2018-03-07T05:11:28.579Z,26.70
2018-03-07T05:13:56.240Z,22.87
2018-03-07T05:16:23.859Z,25.30
2018-03-07T05:18:51.457Z,25.87
2018-03-07T05:21:19.144Z,22.77
2018-03-07T05:23:46.768Z,22.00
2018-03-07T05:26:14.416Z,21.40
2018-03-07T05:28:42.036Z,20.77
2018-03-07T05:31:09.684Z,20.37
2018-03-07T05:33:37.337Z,21.83
2018-03-07T05:36:05.024Z,18.80
2018-03-07T05:38:32.631Z,21.70
2018-03-07T05:41:00.273Z,20.40
2018-03-07T05:43:27.880Z,21.97
2018-03-07T05:45:55.528Z,21.73
2018-03-07T05:48:23.132Z,29.37
2018-03-07T05:50:50.788Z,23.70
2018-03-07T05:53:18.404Z,23.60
2018-03-07T05:55:46.017Z,23.17
2018-03-07T05:58:13.667Z,24.20
2018-03-07T06:00:41.292Z,25.13
2018-03-07T06:03:08.947Z,21.40
2018-03-07T06:05:36.560Z,24.80
2018-03-07T06:08:04.204Z,28.63
2018-03-07T06:10:31.841Z,26.70
2018-03-07T06:12:59.584Z,23.60
2018-03-07T06:15:27.205Z,24.40
2018-03-07T06:17:54.853Z,25.93
2018-03-07T06:20:22.461Z,24.77
2018-03-07T06:22:50.119Z,22.27
2018-03-07T06:25:17.714Z,22.90
2018-03-07T06:27:45.372Z,19.07
2018-03-07T06:30:12.985Z,23.00
2018-03-07T06:32:40.671Z,18.20
2018-03-07T06:35:08.292Z,17.17
2018-03-07T06:37:36.003Z,18.20
2018-03-07T06:40:03.716Z,18.60
2018-03-07T06:42:31.371Z,18.43
2018-03-07T06:44:58.988Z,15.93
2018-03-07T06:47:26.608Z,17.83
2018-03-07T06:49:54.261Z,17.10
2018-03-07T06:52:21.884Z,21.80
2018-03-07T06:54:49.552Z,24.13
2018-03-07T06:57:17.167Z,20.80
2018-03-07T06:59:44.893Z,21.70
2018-03-07T07:02:12.499Z,24.23
2018-03-07T07:04:40.141Z,24.50
2018-03-07T07:07:07.752Z,24.30
2018-03-07T07:09:35.422Z,21.70
2018-03-07T07:12:03.054Z,27.30
2018-03-07T07:14:30.705Z,25.40
2018-03-07T07:16:58.362Z,29.70
2018-03-07T07:19:26.060Z,30.40
2018-03-07T07:21:53.687Z,26.30
2018-03-07T07:24:21.354Z,25.97
2018-03-07T07:26:48.969Z,25.10
2018-03-07T07:29:16.633Z,28.37
2018-03-07T07:31:44.239Z,26.20
2018-03-07T07:34:11.920Z,21.47
2018-03-07T07:36:39.524Z,22.97
2018-03-07T07:39:07.246Z,20.10
2018-03-07T07:41:34.866Z,19.27
2018-03-07T07:44:02.520Z,18.50
2018-03-07T07:46:30.123Z,18.83
2018-03-07T07:48:57.823Z,18.40
2018-03-07T07:51:25.432Z,20.00
2018-03-07T07:53:53.077Z,18.53
2018-03-07T07:56:20.684Z,22.60
2018-03-07T07:58:48.369Z,22.70
2018-03-07T08:01:15.992Z,22.37
2018-03-07T08:03:43.660Z,21.80
2018-03-07T08:06:11.272Z,21.50
2018-03-07T08:08:38.932Z,23.67
2018-03-07T08:11:06.573Z,23.87
2018-03-07T08:13:34.267Z,23.87
2018-03-07T08:16:01.923Z,22.60
2018-03-07T08:18:29.594Z,23.87
2018-03-07T08:20:57.201Z,23.50
2018-03-07T08:23:24.880Z,36.07
2018-03-07T08:25:52.487Z,33.93
2018-03-07T08:28:20.133Z,26.77
2018-03-07T08:30:47.747Z,29.93
2018-03-07T08:33:15.408Z,28.43
2018-03-07T08:35:43.100Z,26.40
2018-03-07T08:38:10.726Z,23.90
2018-03-07T08:40:38.341Z,29.20
2018-03-07T08:43:05.998Z,25.10
2018-03-07T08:45:33.615Z,22.30
2018-03-07T08:48:01.264Z,24.43
2018-03-07T08:50:28.917Z,24.63
2018-03-07T08:52:56.520Z,23.40
2018-03-07T08:55:24.202Z,22.50
2018-03-07T08:57:51.821Z,21.87
2018-03-07T09:00:19.546Z,25.33
2018-03-07T09:02:47.179Z,26.00
2018-03-07T09:05:14.920Z,22.13
2018-03-07T09:07:42.533Z,25.10
2018-03-07T09:10:10.266Z,25.07
2018-03-07T09:12:37.845Z,24.87
2018-03-07T09:15:05.512Z,24.40
2018-03-07T09:17:33.125Z,23.33
2018-03-07T09:20:00.805Z,24.60
2018-03-07T09:22:28.481Z,22.30
2018-03-07T09:24:56.135Z,21.70
2018-03-07T09:27:23.744Z,21.53
2018-03-07T09:29:51.396Z,20.47
2018-03-07T09:32:19.045Z,20.60
2018-03-07T09:34:46.726Z,19.07
2018-03-07T09:37:14.404Z,20.93
2018-03-07T09:39:42.078Z,18.57
2018-03-07T09:42:09.706Z,18.97
2018-03-07T09:44:37.380Z,21.67
2018-03-07T09:47:05.013Z,21.23
2018-03-07T09:49:32.664Z,21.93
2018-03-07T09:52:00.297Z,20.37
2018-03-07T09:54:28.030Z,19.50
2018-03-07T09:56:55.661Z,19.10
2018-03-07T09:59:23.353Z,17.40
2018-03-07T10:01:51.016Z,18.93
2018-03-07T10:04:18.685Z,19.13
2018-03-07T10:06:46.296Z,19.27
2018-03-07T10:09:13.958Z,18.43
2018-03-07T10:11:41.560Z,17.10
2018-03-07T10:14:09.217Z,16.47
2018-03-07T10:16:36.907Z,17.07
2018-03-07T10:19:04.616Z,17.60
2018-03-07T10:21:32.238Z,17.40
2018-03-07T10:23:59.888Z,19.60
2018-03-07T10:26:27.512Z,18.10
2018-03-07T10:28:55.161Z,18.70
2018-03-07T10:31:22.777Z,17.77
2018-03-07T10:33:50.460Z,17.83
2018-03-07T10:36:18.080Z,16.17
2018-03-07T10:38:45.764Z,15.40
2018-03-07T10:41:13.409Z,14.80
2018-03-07T10:43:41.063Z,13.33
2018-03-07T10:46:08.681Z,12.27
2018-03-07T10:48:36.370Z,11.70
2018-03-07T10:51:03.997Z,12.90
2018-03-07T10:53:31.659Z,11.77
2018-03-07T10:55:59.296Z,9.33
2018-03-07T10:58:26.896Z,9.67
2018-03-07T11:00:54.537Z,8.43
2018-03-07T11:03:22.163Z,8.27
2018-03-07T11:05:49.823Z,6.20
2018-03-07T11:08:17.416Z,5.53
2018-03-07T11:10:45.053Z,5.83
2018-03-07T11:13:12.664Z,5.90
2018-03-07T11:15:40.730Z,6.17
2018-03-07T11:18:08.354Z,6.70
2018-03-07T11:20:36.077Z,5.50
2018-03-07T11:23:03.686Z,6.23
2018-03-07T11:25:31.347Z,6.93
2018-03-07T11:27:58.997Z,5.83
2018-03-07T11:30:26.656Z,5.17
2018-03-07T11:32:54.281Z,5.87
2018-03-07T11:35:21.934Z,5.57
2018-03-07T11:37:49.836Z,5.00
2018-03-07T11:40:17.624Z,4.87
2018-03-07T11:42:45.248Z,5.07
2018-03-07T11:45:12.912Z,4.60
2018-03-07T11:47:40.520Z,5.20
2018-03-07T11:50:08.161Z,5.67
2018-03-07T11:52:35.772Z,4.90
2018-03-07T11:55:03.428Z,4.50
2018-03-07T11:57:31.036Z,5.83
2018-03-07T11:59:58.684Z,4.80
2018-03-07T12:02:26.339Z,4.97
2018-03-07T12:04:53.984Z,5.37
2018-03-07T12:07:21.592Z,4.93
2018-03-07T12:09:49.291Z,4.77
2018-03-07T12:12:16.893Z,4.43
2018-03-07T12:14:44.549Z,5.33
2018-03-07T12:17:12.228Z,4.40
2018-03-07T12:19:39.937Z,4.10
2018-03-07T12:22:07.540Z,5.30
2018-03-07T12:24:35.264Z,4.60
2018-03-07T12:27:02.875Z,4.53
2018-03-07T12:29:30.531Z,4.80
2018-03-07T12:31:58.156Z,4.40
2018-03-07T12:34:25.880Z,4.80
2018-03-07T12:36:53.492Z,4.70
2018-03-07T12:39:21.147Z,6.63
2018-03-07T12:41:48.793Z,5.13
2018-03-07T12:44:16.476Z,4.50
2018-03-07T12:46:44.078Z,5.03
2018-03-07T12:49:11.724Z,4.90
2018-03-07T12:51:39.328Z,5.93
2018-03-07T12:54:06.979Z,4.00
2018-03-07T12:56:34.590Z,3.60
2018-03-07T12:59:02.292Z,3.87
2018-03-07T13:01:29.905Z,3.20
2018-03-07T13:03:57.516Z,4.23
2018-03-07T13:06:25.210Z,2.67
2018-03-07T13:08:52.820Z,5.10
2018-03-07T13:11:20.461Z,3.50
2018-03-07T13:13:48.082Z,2.80
2018-03-07T13:16:15.728Z,2.40
2018-03-07T13:18:43.344Z,2.70
2018-03-07T13:21:10.989Z,3.40
2018-03-07T13:23:38.600Z,2.40
2018-03-07T13:26:06.261Z,2.73
2018-03-07T13:28:33.856Z,2.53
2018-03-07T13:31:01.509Z,4.47
2018-03-07T13:33:29.128Z,2.83
2018-03-07T13:35:56.776Z,3.70
2018-03-07T13:38:24.390Z,3.20
2018-03-07T13:40:52.037Z,3.23
2018-03-07T13:43:19.647Z,2.40
2018-03-07T13:45:47.344Z,2.70
2018-03-07T13:48:14.980Z,2.53
2018-03-07T13:50:42.690Z,4.17
2018-03-07T13:53:10.333Z,3.40
2018-03-07T13:55:37.980Z,2.90
2018-03-07T13:58:05.610Z,2.30
2018-03-07T14:00:33.253Z,2.30
2018-03-07T14:03:00.869Z,3.40
2018-03-07T14:05:28.554Z,2.90
2018-03-07T14:07:56.175Z,2.92
2018-03-07T14:10:23.821Z,3.00
2018-03-07T14:12:51.421Z,3.37
2018-03-07T14:15:19.069Z,3.27
2018-03-07T14:17:46.684Z,3.47
2018-03-07T14:20:14.328Z,4.10
2018-03-07T14:22:41.952Z,4.40
2018-03-07T14:25:09.614Z,3.10
2018-03-07T14:30:10.214Z,3.03
2018-03-07T14:32:37.836Z,3.23
2018-03-07T14:35:05.765Z,8.10
2018-03-07T14:37:33.377Z,3.30
2018-03-07T14:40:01.510Z,4.77
2018-03-07T14:42:29.125Z,2.30
2018-03-07T14:44:56.807Z,9.40
2018-03-07T14:47:24.424Z,7.33
2018-03-07T14:49:52.130Z,2.73
2018-03-07T14:52:19.724Z,2.70
2018-03-07T14:54:47.364Z,2.63
2018-03-07T14:57:15.067Z,3.80
2018-03-07T14:59:42.761Z,8.50
2018-03-07T15:02:10.661Z,4.20
2018-03-07T15:04:38.315Z,4.33
2018-03-07T15:07:05.924Z,4.07
2018-03-07T15:09:33.573Z,4.90
2018-03-07T15:12:01.184Z,4.37
2018-03-07T15:14:28.852Z,4.67
2018-03-07T15:16:57.421Z,5.10
2018-03-07T15:19:25.046Z,3.87
2018-03-07T15:21:52.724Z,2.83
2018-03-07T15:24:20.331Z,3.47
2018-03-07T15:26:48.134Z,3.03
2018-03-07T15:29:15.768Z,4.20
2018-03-07T15:31:43.421Z,6.10
2018-03-07T15:34:11.045Z,4.17
2018-03-07T15:36:38.689Z,4.10
2018-03-07T15:39:06.290Z,4.13
2018-03-07T15:41:33.951Z,5.20
2018-03-07T15:44:01.556Z,4.17
2018-03-07T15:46:29.246Z,4.20
2018-03-07T15:48:56.844Z,3.73
2018-03-07T15:51:24.864Z,6.03
2018-03-07T15:53:52.820Z,7.20
2018-03-07T15:56:20.751Z,4.03
2018-03-07T15:58:48.522Z,5.87
2018-03-07T16:01:16.273Z,2.20
2018-03-07T16:03:43.881Z,2.80
2018-03-07T16:06:11.522Z,1.73
2018-03-07T16:08:39.420Z,1.70
2018-03-07T16:11:07.066Z,1.73
2018-03-07T16:13:34.934Z,1.30
2018-03-07T16:16:02.696Z,4.30
2018-03-07T16:18:30.316Z,1.97
2018-03-07T16:20:57.957Z,1.10
2018-03-07T16:23:25.561Z,0.97
2018-03-07T16:25:53.221Z,1.17
2018-03-07T16:28:20.830Z,0.87
2018-03-07T16:30:48.592Z,1.77
2018-03-07T16:33:16.205Z,1.20
2018-03-07T16:35:43.864Z,1.20
2018-03-07T16:38:11.460Z,1.57
2018-03-07T16:40:39.096Z,1.40
2018-03-07T16:43:06.720Z,1.80
2018-03-07T16:45:34.368Z,1.50
2018-03-07T16:48:01.998Z,3.17
2018-03-07T16:50:29.649Z,2.80
2018-03-07T16:52:57.247Z,2.17
2018-03-07T16:55:24.896Z,2.00
2018-03-07T16:57:52.512Z,1.67
2018-03-07T17:00:20.172Z,2.57
2018-03-07T17:02:47.777Z,2.20
2018-03-07T17:05:15.415Z,2.77
2018-03-07T17:07:43.021Z,2.30
2018-03-07T17:10:10.744Z,1.77
2018-03-07T17:12:38.371Z,2.10
2018-03-07T17:15:06.012Z,1.53
2018-03-07T17:17:33.616Z,1.40
2018-03-07T17:20:02.782Z,1.47
2018-03-07T17:22:30.436Z,1.20
2018-03-07T17:24:58.045Z,1.63
2018-03-07T17:27:25.700Z,1.50
2018-03-07T17:29:53.309Z,2.00
2018-03-07T17:32:20.965Z,2.40
2018-03-07T17:34:48.564Z,3.47
2018-03-07T17:37:16.205Z,3.10
2018-03-07T17:39:43.855Z,2.70
2018-03-07T17:42:11.501Z,2.40
2018-03-07T17:44:39.135Z,2.20
2018-03-07T17:47:06.773Z,2.87
2018-03-07T17:49:34.379Z,3.20
2018-03-07T17:52:02.021Z,2.50
2018-03-07T17:54:29.732Z,2.77
2018-03-07T17:56:58.090Z,2.83
2018-03-07T17:59:25.800Z,4.20
2018-03-07T18:01:53.433Z,4.20
2018-03-07T18:04:21.036Z,4.10
2018-03-07T18:06:48.948Z,4.10
2018-03-07T18:09:16.640Z,3.97
2018-03-07T18:11:44.406Z,4.20
2018-03-07T18:14:12.244Z,3.97
2018-03-07T18:16:40.122Z,3.93
2018-03-07T18:19:08.079Z,4.27
2018-03-07T18:21:35.719Z,3.97
2018-03-07T18:24:03.323Z,4.80
2018-03-07T18:26:30.924Z,2.80
2018-03-07T18:28:58.620Z,3.10
2018-03-07T18:31:26.256Z,2.90
2018-03-07T18:33:54.472Z,3.33
2018-03-07T18:36:22.154Z,3.83
2018-03-07T18:38:50.313Z,2.90
2018-03-07T18:41:18.417Z,3.07
2018-03-07T18:43:46.117Z,3.03
2018-03-07T18:46:13.783Z,3.57
2018-03-07T18:48:41.548Z,4.13
2018-03-07T18:51:09.149Z,2.70
2018-03-07T18:53:36.800Z,2.57
2018-03-07T18:56:04.400Z,3.60
2018-03-07T18:58:32.045Z,2.80
2018-03-07T19:00:59.769Z,1.90
2018-03-07T19:03:27.641Z,2.83
2018-03-07T19:05:55.770Z,2.20
2018-03-07T19:08:23.513Z,2.00
2018-03-07T19:10:55.141Z,2.10
2018-03-07T19:13:22.799Z,2.10
2018-03-07T19:15:55.178Z,1.93
2018-03-07T19:18:22.876Z,1.90
2018-03-07T19:20:50.532Z,2.20
2018-03-07T19:23:18.140Z,2.47
2018-03-07T19:25:45.785Z,2.07
2018-03-07T19:28:13.384Z,2.57
2018-03-07T19:30:41.039Z,2.23
2018-03-07T19:33:08.665Z,2.50
2018-03-07T19:35:36.356Z,2.63
2018-03-07T19:38:03.957Z,2.63
2018-03-07T19:40:31.596Z,2.40
2018-03-07T19:42:59.347Z,2.00
2018-03-07T19:45:26.996Z,2.73
2018-03-07T19:47:54.620Z,2.87
2018-03-07T19:50:22.269Z,2.73
2018-03-07T19:52:49.891Z,2.80
2018-03-07T19:55:17.532Z,3.23
2018-03-07T19:57:45.145Z,2.60
2018-03-07T20:00:12.837Z,3.33
2018-03-07T20:02:40.426Z,3.53
2018-03-07T20:05:08.022Z,2.70
2018-03-07T20:07:35.671Z,3.53
2018-03-07T20:10:03.272Z,3.00
2018-03-07T20:12:30.959Z,2.77
2018-03-07T20:14:58.579Z,3.07
2018-03-07T20:17:26.224Z,3.13
2018-03-07T20:19:53.839Z,2.80
2018-03-07T20:22:21.495Z,2.60
2018-03-07T20:24:49.088Z,2.77
2018-03-07T20:27:16.733Z,2.90
2018-03-07T20:29:44.342Z,2.43
2018-03-07T20:32:11.988Z,3.37
2018-03-07T20:34:39.611Z,2.40
2018-03-07T20:37:07.263Z,3.63
2018-03-07T20:39:34.873Z,3.70
2018-03-07T20:42:02.519Z,7.50
2018-03-07T20:44:30.118Z,8.13
2018-03-07T20:46:58.151Z,3.60
2018-03-07T20:49:25.761Z,4.10
2018-03-07T20:51:53.403Z,3.57
2018-03-07T20:54:21.006Z,8.23
2018-03-07T20:56:48.727Z,8.93
2018-03-07T20:59:16.341Z,5.50
2018-03-07T21:01:44.016Z,6.20
2018-03-07T21:04:11.637Z,8.77
2018-03-07T21:06:39.289Z,5.47
2018-03-07T21:09:06.905Z,7.90
2018-03-07T21:11:34.556Z,4.67
2018-03-07T21:14:02.158Z,4.13
2018-03-07T21:16:29.796Z,6.47
2018-03-07T21:18:57.402Z,5.43
2018-03-07T21:21:25.058Z,13.67
2018-03-07T21:23:52.676Z,5.63
2018-03-07T21:26:20.317Z,7.60
2018-03-07T21:28:47.916Z,8.60
2018-03-07T21:31:15.648Z,6.20
2018-03-07T21:33:43.248Z,6.70
2018-03-07T21:36:10.897Z,5.77
2018-03-07T21:38:38.510Z,6.50
2018-03-07T21:41:06.112Z,6.70
2018-03-07T21:43:33.768Z,8.70
2018-03-07T21:46:01.415Z,7.00
2018-03-07T21:48:29.051Z,5.97
2018-03-07T21:50:56.677Z,5.70
2018-03-07T21:53:24.325Z,6.30
2018-03-07T21:55:52.292Z,6.30
2018-03-07T21:58:19.993Z,6.37
2018-03-07T22:00:47.592Z,6.50
2018-03-07T22:03:15.252Z,7.17
2018-03-07T22:05:42.866Z,6.20
2018-03-07T22:08:10.525Z,6.33
2018-03-07T22:10:38.123Z,7.43
2018-03-07T22:13:05.784Z,6.63
2018-03-07T22:15:33.430Z,7.20
2018-03-07T22:18:01.112Z,7.10
2018-03-07T22:20:28.736Z,5.83
2018-03-07T22:22:56.381Z,6.37
2018-03-07T22:25:23.980Z,6.80
2018-03-07T22:27:51.624Z,6.37
2018-03-07T22:30:19.229Z,8.33
2018-03-07T22:32:46.868Z,8.70
2018-03-07T22:35:14.487Z,7.07
2018-03-07T22:37:42.126Z,8.60
2018-03-07T22:40:09.731Z,7.33
2018-03-07T22:42:37.376Z,6.20
2018-03-07T22:45:04.980Z,7.83
2018-03-07T22:47:32.624Z,30.10
2018-03-07T22:50:00.250Z,7.17
2018-03-07T22:52:27.898Z,8.87
2018-03-07T22:54:55.526Z,6.00
2018-03-07T22:57:23.169Z,6.43
2018-03-07T22:59:50.777Z,6.10
2018-03-07T23:02:18.424Z,6.73
2018-03-07T23:04:46.018Z,7.50
2018-03-07T23:07:13.673Z,6.80
2018-03-07T23:09:41.317Z,6.50
2018-03-07T23:12:08.971Z,6.50
2018-03-07T23:14:36.571Z,6.00
2018-03-07T23:17:04.233Z,8.60
2018-03-07T23:19:32.737Z,6.33
2018-03-07T23:22:00.434Z,6.60
2018-03-07T23:24:28.040Z,6.83
2018-03-07T23:26:55.688Z,7.20
2018-03-07T23:29:23.288Z,6.30
2018-03-07T23:31:50.984Z,6.30
2018-03-07T23:34:18.588Z,6.07
2018-03-07T23:36:46.224Z,6.50
2018-03-07T23:39:13.837Z,6.97
2018-03-07T23:41:41.518Z,7.20
2018-03-07T23:44:09.205Z,6.70
2018-03-07T23:46:36.808Z,7.77
2018-03-07T23:49:04.449Z,6.47
2018-03-07T23:51:32.060Z,6.70
2018-03-07T23:53:59.698Z,6.97
2018-03-07T23:56:27.289Z,6.73
2018-03-07T23:58:54.943Z,7.97
